sensor_id;sensor_type;location;lat;lon;timestamp;P1;durP1;ratioP1;P2;durP2;ratioP2
63434;SDS011;68814;50.872;5.306;2023-05-10T00:01:46;15.57;;;8.98;;
63434;SDS011;68814;50.872;5.306;2023-05-10T00:04:11;16.08;;;8.77;;
63434;SDS011;68814;50.872;5.306;2023-05-10T00:06:37;17.13;;;8.80;;
63434;SDS011;68814;50.872;5.306;2023-05-10T00:09:03;14.50;;;8.50;;
63434;SDS011;68814;50.872;5.306;2023-05-10T00:11:28;17.45;;;9.35;;
63434;SDS011;68814;50.872;5.306;2023-05-10T00:13:54;12.70;;;8.98;;
63434;SDS011;68814;50.872;5.306;2023-05-10T00:16:20;15.45;;;9.32;;
63434;SDS011;68814;50.872;5.306;2023-05-10T00:18:46;15.10;;;8.63;;
63434;SDS011;68814;50.872;5.306;2023-05-10T00:21:11;17.23;;;8.80;;
63434;SDS011;68814;50.872;5.306;2023-05-10T00:23:37;12.93;;;8.70;;
63434;SDS011;68814;50.872;5.306;2023-05-10T00:26:03;19.67;;;10.07;;
63434;SDS011;68814;50.872;5.306;2023-05-10T00:28:28;14.90;;;9.13;;
63434;SDS011;68814;50.872;5.306;2023-05-10T00:30:54;14.32;;;9.35;;
63434;SDS011;68814;50.872;5.306;2023-05-10T00:33:20;14.93;;;9.40;;
63434;SDS011;68814;50.872;5.306;2023-05-10T00:35:46;19.15;;;9.90;;
63434;SDS011;68814;50.872;5.306;2023-05-10T00:38:11;16.30;;;10.27;;
63434;SDS011;68814;50.872;5.306;2023-05-10T00:40:37;14.10;;;9.38;;
63434;SDS011;68814;50.872;5.306;2023-05-10T00:43:03;17.55;;;9.77;;
63434;SDS011;68814;50.872;5.306;2023-05-10T00:45:30;16.17;;;9.20;;
63434;SDS011;68814;50.872;5.306;2023-05-10T00:47:58;17.13;;;10.02;;
63434;SDS011;68814;50.872;5.306;2023-05-10T00:50:25;17.58;;;9.65;;
63434;SDS011;68814;50.872;5.306;2023-05-10T00:52:51;16.33;;;9.50;;
63434;SDS011;68814;50.872;5.306;2023-05-10T00:55:17;14.20;;;9.38;;
63434;SDS011;68814;50.872;5.306;2023-05-10T00:57:43;16.33;;;9.82;;
63434;SDS011;68814;50.872;5.306;2023-05-10T01:00:09;16.70;;;10.38;;
63434;SDS011;68814;50.872;5.306;2023-05-10T01:02:36;15.25;;;9.55;;
63434;SDS011;68814;50.872;5.306;2023-05-10T01:05:02;16.20;;;9.95;;
63434;SDS011;68814;50.872;5.306;2023-05-10T01:07:31;20.23;;;9.90;;
63434;SDS011;68814;50.872;5.306;2023-05-10T01:09:56;21.92;;;10.52;;
63434;SDS011;68814;50.872;5.306;2023-05-10T01:12:22;19.10;;;9.98;;
63434;SDS011;68814;50.872;5.306;2023-05-10T01:14:48;21.58;;;10.38;;
63434;SDS011;68814;50.872;5.306;2023-05-10T01:17:14;19.77;;;9.60;;
63434;SDS011;68814;50.872;5.306;2023-05-10T01:19:41;19.17;;;10.30;;
63434;SDS011;68814;50.872;5.306;2023-05-10T01:30:14;19.83;;;10.63;;
63434;SDS011;68814;50.872;5.306;2023-05-10T01:36:10;24.80;;;11.95;;
63434;SDS011;68814;50.872;5.306;2023-05-10T01:38:49;19.70;;;11.15;;
63434;SDS011;68814;50.872;5.306;2023-05-10T01:44:09;20.92;;;11.57;;
63434;SDS011;68814;50.872;5.306;2023-05-10T01:47:15;18.67;;;11.60;;
63434;SDS011;68814;50.872;5.306;2023-05-10T01:49:49;19.25;;;10.50;;
63434;SDS011;68814;50.872;5.306;2023-05-10T01:52:18;16.48;;;10.90;;
63434;SDS011;68814;50.872;5.306;2023-05-10T01:54:50;19.70;;;10.73;;
63434;SDS011;68814;50.872;5.306;2023-05-10T01:57:25;18.15;;;11.00;;
63434;SDS011;68814;50.872;5.306;2023-05-10T01:59:52;20.23;;;10.75;;
63434;SDS011;68814;50.872;5.306;2023-05-10T02:02:20;21.85;;;11.18;;
63434;SDS011;68814;50.872;5.306;2023-05-10T02:04:47;17.25;;;10.07;;
63434;SDS011;68814;50.872;5.306;2023-05-10T02:07:15;22.98;;;10.13;;
63434;SDS011;68814;50.872;5.306;2023-05-10T02:09:43;18.25;;;10.18;;
63434;SDS011;68814;50.872;5.306;2023-05-10T02:12:12;21.98;;;11.02;;
63434;SDS011;68814;50.872;5.306;2023-05-10T02:14:39;22.10;;;10.95;;
63434;SDS011;68814;50.872;5.306;2023-05-10T02:17:07;22.02;;;11.43;;
63434;SDS011;68814;50.872;5.306;2023-05-10T02:19:36;26.95;;;11.60;;
63434;SDS011;68814;50.872;5.306;2023-05-10T02:22:03;18.27;;;10.95;;
63434;SDS011;68814;50.872;5.306;2023-05-10T02:24:30;24.08;;;12.43;;
63434;SDS011;68814;50.872;5.306;2023-05-10T02:26:58;21.65;;;10.98;;
63434;SDS011;68814;50.872;5.306;2023-05-10T02:29:25;23.05;;;12.57;;
63434;SDS011;68814;50.872;5.306;2023-05-10T02:31:53;31.08;;;13.23;;
63434;SDS011;68814;50.872;5.306;2023-05-10T02:34:21;21.58;;;12.55;;
63434;SDS011;68814;50.872;5.306;2023-05-10T02:36:48;28.02;;;12.98;;
63434;SDS011;68814;50.872;5.306;2023-05-10T02:39:15;28.92;;;12.55;;
63434;SDS011;68814;50.872;5.306;2023-05-10T02:41:43;26.70;;;12.05;;
63434;SDS011;68814;50.872;5.306;2023-05-10T02:44:11;25.50;;;11.85;;
63434;SDS011;68814;50.872;5.306;2023-05-10T02:46:40;24.35;;;13.15;;
63434;SDS011;68814;50.872;5.306;2023-05-10T02:49:06;28.92;;;13.50;;
63434;SDS011;68814;50.872;5.306;2023-05-10T02:51:34;28.92;;;13.60;;
63434;SDS011;68814;50.872;5.306;2023-05-10T02:54:04;30.50;;;13.60;;
63434;SDS011;68814;50.872;5.306;2023-05-10T02:56:38;30.58;;;14.52;;
63434;SDS011;68814;50.872;5.306;2023-05-10T02:59:11;32.50;;;14.98;;
63434;SDS011;68814;50.872;5.306;2023-05-10T03:01:37;24.10;;;13.85;;
63434;SDS011;68814;50.872;5.306;2023-05-10T03:04:03;26.35;;;14.13;;
63434;SDS011;68814;50.872;5.306;2023-05-10T03:06:29;30.20;;;14.30;;
63434;SDS011;68814;50.872;5.306;2023-05-10T03:08:55;34.33;;;15.43;;
63434;SDS011;68814;50.872;5.306;2023-05-10T03:14:04;28.30;;;15.23;;
63434;SDS011;68814;50.872;5.306;2023-05-10T03:16:45;29.60;;;15.13;;
63434;SDS011;68814;50.872;5.306;2023-05-10T03:21:49;32.25;;;16.58;;
63434;SDS011;68814;50.872;5.306;2023-05-10T03:24:16;33.53;;;15.70;;
63434;SDS011;68814;50.872;5.306;2023-05-10T03:26:46;37.95;;;16.08;;
63434;SDS011;68814;50.872;5.306;2023-05-10T03:29:13;34.83;;;16.30;;
63434;SDS011;68814;50.872;5.306;2023-05-10T03:31:40;33.08;;;16.05;;
63434;SDS011;68814;50.872;5.306;2023-05-10T03:34:06;34.17;;;16.13;;
63434;SDS011;68814;50.872;5.306;2023-05-10T03:36:32;32.13;;;16.15;;
63434;SDS011;68814;50.872;5.306;2023-05-10T03:38:58;37.25;;;17.10;;
63434;SDS011;68814;50.872;5.306;2023-05-10T03:41:24;32.33;;;16.10;;
63434;SDS011;68814;50.872;5.306;2023-05-10T03:43:50;38.50;;;16.58;;
63434;SDS011;68814;50.872;5.306;2023-05-10T03:46:16;35.03;;;17.50;;
63434;SDS011;68814;50.872;5.306;2023-05-10T03:48:42;31.65;;;16.95;;
63434;SDS011;68814;50.872;5.306;2023-05-10T03:51:08;35.88;;;17.20;;
63434;SDS011;68814;50.872;5.306;2023-05-10T03:53:33;32.17;;;16.08;;
63434;SDS011;68814;50.872;5.306;2023-05-10T03:55:59;33.05;;;17.50;;
63434;SDS011;68814;50.872;5.306;2023-05-10T03:58:25;36.97;;;17.50;;
63434;SDS011;68814;50.872;5.306;2023-05-10T04:00:51;34.10;;;17.08;;
63434;SDS011;68814;50.872;5.306;2023-05-10T04:03:17;33.92;;;16.52;;
63434;SDS011;68814;50.872;5.306;2023-05-10T04:05:43;36.53;;;16.15;;
63434;SDS011;68814;50.872;5.306;2023-05-10T04:08:08;38.10;;;17.30;;
63434;SDS011;68814;50.872;5.306;2023-05-10T04:10:34;33.25;;;16.35;;
63434;SDS011;68814;50.872;5.306;2023-05-10T04:13:00;38.13;;;17.02;;
63434;SDS011;68814;50.872;5.306;2023-05-10T04:15:25;32.50;;;16.45;;
63434;SDS011;68814;50.872;5.306;2023-05-10T04:17:51;37.42;;;17.08;;
63434;SDS011;68814;50.872;5.306;2023-05-10T04:20:17;33.70;;;17.15;;
63434;SDS011;68814;50.872;5.306;2023-05-10T04:22:43;31.17;;;15.15;;
63434;SDS011;68814;50.872;5.306;2023-05-10T04:25:08;30.25;;;13.77;;
63434;SDS011;68814;50.872;5.306;2023-05-10T04:27:34;26.88;;;12.88;;
63434;SDS011;68814;50.872;5.306;2023-05-10T04:30:00;25.88;;;13.35;;
63434;SDS011;68814;50.872;5.306;2023-05-10T04:32:26;25.95;;;13.68;;
63434;SDS011;68814;50.872;5.306;2023-05-10T04:34:52;28.00;;;12.73;;
63434;SDS011;68814;50.872;5.306;2023-05-10T04:37:18;27.55;;;14.07;;
63434;SDS011;68814;50.872;5.306;2023-05-10T04:39:43;32.97;;;13.63;;
63434;SDS011;68814;50.872;5.306;2023-05-10T04:42:09;32.00;;;13.95;;
63434;SDS011;68814;50.872;5.306;2023-05-10T04:44:35;28.25;;;14.00;;
63434;SDS011;68814;50.872;5.306;2023-05-10T04:47:01;29.98;;;13.73;;
63434;SDS011;68814;50.872;5.306;2023-05-10T04:49:28;32.60;;;14.85;;
63434;SDS011;68814;50.872;5.306;2023-05-10T04:51:54;24.48;;;12.90;;
63434;SDS011;68814;50.872;5.306;2023-05-10T04:54:20;23.00;;;12.40;;
63434;SDS011;68814;50.872;5.306;2023-05-10T04:56:46;21.55;;;11.60;;
63434;SDS011;68814;50.872;5.306;2023-05-10T04:59:11;16.27;;;9.15;;
63434;SDS011;68814;50.872;5.306;2023-05-10T05:01:37;20.20;;;9.63;;
63434;SDS011;68814;50.872;5.306;2023-05-10T05:04:03;16.58;;;9.55;;
63434;SDS011;68814;50.872;5.306;2023-05-10T05:06:28;22.38;;;10.02;;
63434;SDS011;68814;50.872;5.306;2023-05-10T05:08:54;19.48;;;10.52;;
63434;SDS011;68814;50.872;5.306;2023-05-10T05:11:20;18.73;;;8.70;;
63434;SDS011;68814;50.872;5.306;2023-05-10T05:13:46;17.95;;;9.07;;
63434;SDS011;68814;50.872;5.306;2023-05-10T05:16:12;16.33;;;7.95;;
63434;SDS011;68814;50.872;5.306;2023-05-10T05:18:38;17.85;;;7.90;;
63434;SDS011;68814;50.872;5.306;2023-05-10T05:21:13;17.20;;;7.88;;
63434;SDS011;68814;50.872;5.306;2023-05-10T05:23:42;20.60;;;9.00;;
63434;SDS011;68814;50.872;5.306;2023-05-10T05:26:08;15.68;;;8.13;;
63434;SDS011;68814;50.872;5.306;2023-05-10T05:28:34;17.45;;;8.50;;
63434;SDS011;68814;50.872;5.306;2023-05-10T05:31:02;19.35;;;8.48;;
63434;SDS011;68814;50.872;5.306;2023-05-10T05:33:28;17.80;;;8.40;;
63434;SDS011;68814;50.872;5.306;2023-05-10T05:35:54;16.77;;;8.65;;
63434;SDS011;68814;50.872;5.306;2023-05-10T05:38:20;15.68;;;8.00;;
63434;SDS011;68814;50.872;5.306;2023-05-10T05:40:45;17.55;;;8.77;;
63434;SDS011;68814;50.872;5.306;2023-05-10T05:43:11;18.05;;;8.27;;
63434;SDS011;68814;50.872;5.306;2023-05-10T05:45:37;16.25;;;8.98;;
63434;SDS011;68814;50.872;5.306;2023-05-10T05:48:02;14.55;;;8.27;;
63434;SDS011;68814;50.872;5.306;2023-05-10T05:50:31;15.40;;;8.65;;
63434;SDS011;68814;50.872;5.306;2023-05-10T05:52:57;18.88;;;9.52;;
63434;SDS011;68814;50.872;5.306;2023-05-10T05:55:23;19.98;;;9.77;;
63434;SDS011;68814;50.872;5.306;2023-05-10T05:57:49;20.60;;;11.57;;
63434;SDS011;68814;50.872;5.306;2023-05-10T06:00:15;29.00;;;12.60;;
63434;SDS011;68814;50.872;5.306;2023-05-10T06:02:41;25.65;;;11.98;;
63434;SDS011;68814;50.872;5.306;2023-05-10T06:05:06;27.25;;;13.48;;
63434;SDS011;68814;50.872;5.306;2023-05-10T06:07:32;30.30;;;14.10;;
63434;SDS011;68814;50.872;5.306;2023-05-10T06:09:58;31.38;;;16.25;;
63434;SDS011;68814;50.872;5.306;2023-05-10T06:12:24;35.60;;;16.20;;
63434;SDS011;68814;50.872;5.306;2023-05-10T06:14:49;29.33;;;15.75;;
63434;SDS011;68814;50.872;5.306;2023-05-10T06:17:15;33.30;;;15.05;;
63434;SDS011;68814;50.872;5.306;2023-05-10T06:19:41;30.20;;;15.52;;
63434;SDS011;68814;50.872;5.306;2023-05-10T06:22:06;28.55;;;14.68;;
63434;SDS011;68814;50.872;5.306;2023-05-10T06:24:32;31.88;;;15.80;;
63434;SDS011;68814;50.872;5.306;2023-05-10T06:26:57;37.17;;;18.48;;
63434;SDS011;68814;50.872;5.306;2023-05-10T06:29:37;49.20;;;20.17;;
63434;SDS011;68814;50.872;5.306;2023-05-10T06:32:02;50.45;;;20.27;;
63434;SDS011;68814;50.872;5.306;2023-05-10T06:34:28;48.97;;;21.73;;
63434;SDS011;68814;50.872;5.306;2023-05-10T06:36:54;48.10;;;23.85;;
63434;SDS011;68814;50.872;5.306;2023-05-10T06:39:20;51.63;;;22.85;;
63434;SDS011;68814;50.872;5.306;2023-05-10T06:41:46;147.00;;;29.95;;
63434;SDS011;68814;50.872;5.306;2023-05-10T06:44:11;51.15;;;21.25;;
63434;SDS011;68814;50.872;5.306;2023-05-10T06:46:38;47.17;;;20.00;;
63434;SDS011;68814;50.872;5.306;2023-05-10T06:49:04;44.63;;;19.70;;
63434;SDS011;68814;50.872;5.306;2023-05-10T06:51:30;50.47;;;21.35;;
63434;SDS011;68814;50.872;5.306;2023-05-10T06:53:56;47.53;;;20.90;;
63434;SDS011;68814;50.872;5.306;2023-05-10T06:56:21;41.13;;;20.70;;
63434;SDS011;68814;50.872;5.306;2023-05-10T06:58:47;41.33;;;18.80;;
63434;SDS011;68814;50.872;5.306;2023-05-10T07:01:13;37.60;;;19.08;;
63434;SDS011;68814;50.872;5.306;2023-05-10T07:03:39;45.50;;;20.35;;
63434;SDS011;68814;50.872;5.306;2023-05-10T07:06:05;43.97;;;20.25;;
63434;SDS011;68814;50.872;5.306;2023-05-10T07:08:32;40.78;;;18.75;;
63434;SDS011;68814;50.872;5.306;2023-05-10T07:11:05;43.17;;;20.02;;
63434;SDS011;68814;50.872;5.306;2023-05-10T07:13:35;36.03;;;19.15;;
63434;SDS011;68814;50.872;5.306;2023-05-10T07:16:01;37.45;;;18.75;;
63434;SDS011;68814;50.872;5.306;2023-05-10T07:18:27;37.45;;;18.40;;
63434;SDS011;68814;50.872;5.306;2023-05-10T07:20:56;44.33;;;18.13;;
63434;SDS011;68814;50.872;5.306;2023-05-10T07:23:43;40.50;;;19.60;;
63434;SDS011;68814;50.872;5.306;2023-05-10T07:26:08;35.28;;;18.35;;
63434;SDS011;68814;50.872;5.306;2023-05-10T07:28:35;35.53;;;17.42;;
63434;SDS011;68814;50.872;5.306;2023-05-10T07:31:02;34.35;;;17.15;;
63434;SDS011;68814;50.872;5.306;2023-05-10T07:33:28;19.38;;;10.30;;
63434;SDS011;68814;50.872;5.306;2023-05-10T07:35:54;10.30;;;5.55;;
63434;SDS011;68814;50.872;5.306;2023-05-10T07:38:19;7.72;;;4.75;;
63434;SDS011;68814;50.872;5.306;2023-05-10T07:40:45;7.15;;;4.03;;
63434;SDS011;68814;50.872;5.306;2023-05-10T07:43:11;6.90;;;4.10;;
63434;SDS011;68814;50.872;5.306;2023-05-10T07:45:36;4.82;;;3.15;;
63434;SDS011;68814;50.872;5.306;2023-05-10T07:48:02;6.18;;;3.30;;
63434;SDS011;68814;50.872;5.306;2023-05-10T07:50:28;3.03;;;1.98;;
63434;SDS011;68814;50.872;5.306;2023-05-10T07:52:53;3.22;;;2.00;;
63434;SDS011;68814;50.872;5.306;2023-05-10T07:55:19;4.30;;;2.17;;
63434;SDS011;68814;50.872;5.306;2023-05-10T07:57:46;5.13;;;2.10;;
63434;SDS011;68814;50.872;5.306;2023-05-10T08:00:12;1.80;;;1.00;;
63434;SDS011;68814;50.872;5.306;2023-05-10T08:02:41;1.95;;;1.23;;
63434;SDS011;68814;50.872;5.306;2023-05-10T08:05:07;1.88;;;0.90;;
63434;SDS011;68814;50.872;5.306;2023-05-10T08:07:33;3.45;;;1.00;;
63434;SDS011;68814;50.872;5.306;2023-05-10T08:09:58;1.00;;;0.82;;
63434;SDS011;68814;50.872;5.306;2023-05-10T08:12:24;1.30;;;1.20;;
63434;SDS011;68814;50.872;5.306;2023-05-10T08:14:50;4.32;;;1.52;;
63434;SDS011;68814;50.872;5.306;2023-05-10T08:17:15;2.22;;;1.20;;
63434;SDS011;68814;50.872;5.306;2023-05-10T08:19:41;1.63;;;1.45;;
63434;SDS011;68814;50.872;5.306;2023-05-10T08:22:07;3.63;;;2.05;;
63434;SDS011;68814;50.872;5.306;2023-05-10T08:24:33;3.05;;;1.55;;
63434;SDS011;68814;50.872;5.306;2023-05-10T08:27:03;9.40;;;2.50;;
63434;SDS011;68814;50.872;5.306;2023-05-10T08:29:29;3.55;;;1.70;;
63434;SDS011;68814;50.872;5.306;2023-05-10T08:31:55;6.43;;;1.55;;
63434;SDS011;68814;50.872;5.306;2023-05-10T08:34:21;3.92;;;1.90;;
63434;SDS011;68814;50.872;5.306;2023-05-10T08:36:46;5.07;;;2.00;;
63434;SDS011;68814;50.872;5.306;2023-05-10T08:39:12;3.20;;;1.83;;
63434;SDS011;68814;50.872;5.306;2023-05-10T08:41:38;7.15;;;2.00;;
63434;SDS011;68814;50.872;5.306;2023-05-10T08:44:05;6.97;;;2.47;;
63434;SDS011;68814;50.872;5.306;2023-05-10T08:46:33;5.95;;;2.50;;
63434;SDS011;68814;50.872;5.306;2023-05-10T08:49:03;3.95;;;2.33;;
63434;SDS011;68814;50.872;5.306;2023-05-10T08:51:32;5.88;;;2.95;;
63434;SDS011;68814;50.872;5.306;2023-05-10T08:54:05;4.63;;;2.97;;
63434;SDS011;68814;50.872;5.306;2023-05-10T08:56:31;4.88;;;2.90;;
63434;SDS011;68814;50.872;5.306;2023-05-10T08:58:57;6.07;;;3.00;;
63434;SDS011;68814;50.872;5.306;2023-05-10T09:01:22;6.25;;;3.05;;
63434;SDS011;68814;50.872;5.306;2023-05-10T09:03:49;4.10;;;2.80;;
63434;SDS011;68814;50.872;5.306;2023-05-10T09:06:15;5.50;;;3.28;;
63434;SDS011;68814;50.872;5.306;2023-05-10T09:08:42;6.22;;;3.63;;
63434;SDS011;68814;50.872;5.306;2023-05-10T09:11:08;5.93;;;3.60;;
63434;SDS011;68814;50.872;5.306;2023-05-10T09:13:35;6.85;;;4.25;;
63434;SDS011;68814;50.872;5.306;2023-05-10T09:16:02;6.13;;;3.42;;
63434;SDS011;68814;50.872;5.306;2023-05-10T09:18:28;8.13;;;3.15;;
63434;SDS011;68814;50.872;5.306;2023-05-10T09:20:54;7.60;;;3.90;;
63434;SDS011;68814;50.872;5.306;2023-05-10T09:23:20;6.85;;;3.67;;
63434;SDS011;68814;50.872;5.306;2023-05-10T09:25:45;7.03;;;3.78;;
63434;SDS011;68814;50.872;5.306;2023-05-10T09:28:11;5.60;;;4.05;;
63434;SDS011;68814;50.872;5.306;2023-05-10T09:30:37;6.63;;;4.20;;
63434;SDS011;68814;50.872;5.306;2023-05-10T09:33:04;7.45;;;4.97;;
63434;SDS011;68814;50.872;5.306;2023-05-10T09:35:30;8.68;;;4.70;;
63434;SDS011;68814;50.872;5.306;2023-05-10T09:37:59;10.48;;;4.97;;
63434;SDS011;68814;50.872;5.306;2023-05-10T09:40:28;5.70;;;3.83;;
63434;SDS011;68814;50.872;5.306;2023-05-10T09:42:58;6.63;;;4.50;;
63434;SDS011;68814;50.872;5.306;2023-05-10T09:45:32;7.63;;;5.32;;
63434;SDS011;68814;50.872;5.306;2023-05-10T09:47:59;11.57;;;5.78;;
63434;SDS011;68814;50.872;5.306;2023-05-10T09:50:27;9.93;;;6.07;;
63434;SDS011;68814;50.872;5.306;2023-05-10T09:52:55;9.35;;;5.50;;
63434;SDS011;68814;50.872;5.306;2023-05-10T09:55:41;10.18;;;6.25;;
63434;SDS011;68814;50.872;5.306;2023-05-10T09:58:14;10.55;;;6.25;;
63434;SDS011;68814;50.872;5.306;2023-05-10T10:00:44;10.20;;;6.53;;
63434;SDS011;68814;50.872;5.306;2023-05-10T10:03:20;11.07;;;6.63;;
63434;SDS011;68814;50.872;5.306;2023-05-10T10:08:12;13.02;;;7.28;;
63434;SDS011;68814;50.872;5.306;2023-05-10T10:10:39;12.75;;;6.53;;
63434;SDS011;68814;50.872;5.306;2023-05-10T10:13:11;13.43;;;7.20;;
63434;SDS011;68814;50.872;5.306;2023-05-10T10:15:37;13.65;;;7.90;;
63434;SDS011;68814;50.872;5.306;2023-05-10T10:18:03;15.75;;;7.78;;
63434;SDS011;68814;50.872;5.306;2023-05-10T10:20:30;19.77;;;8.50;;
63434;SDS011;68814;50.872;5.306;2023-05-10T10:22:56;14.85;;;8.70;;
63434;SDS011;68814;50.872;5.306;2023-05-10T10:25:22;40.58;;;11.93;;
63434;SDS011;68814;50.872;5.306;2023-05-10T10:35:32;13.55;;;7.68;;
63434;SDS011;68814;50.872;5.306;2023-05-10T10:37:59;13.65;;;7.45;;
63434;SDS011;68814;50.872;5.306;2023-05-10T10:40:26;13.07;;;8.07;;
63434;SDS011;68814;50.872;5.306;2023-05-10T10:42:54;13.52;;;7.82;;
63434;SDS011;68814;50.872;5.306;2023-05-10T10:45:20;11.57;;;6.60;;
63434;SDS011;68814;50.872;5.306;2023-05-10T10:47:47;10.48;;;6.00;;
63434;SDS011;68814;50.872;5.306;2023-05-10T10:50:13;10.38;;;6.07;;
63434;SDS011;68814;50.872;5.306;2023-05-10T10:52:41;10.45;;;6.55;;
63434;SDS011;68814;50.872;5.306;2023-05-10T10:55:12;11.00;;;6.53;;
63434;SDS011;68814;50.872;5.306;2023-05-10T10:57:49;9.57;;;5.75;;
63434;SDS011;68814;50.872;5.306;2023-05-10T11:00:27;6.90;;;4.78;;
63434;SDS011;68814;50.872;5.306;2023-05-10T11:03:12;11.63;;;6.13;;
63434;SDS011;68814;50.872;5.306;2023-05-10T11:05:46;7.53;;;4.32;;
63434;SDS011;68814;50.872;5.306;2023-05-10T11:16:30;5.78;;;4.00;;
63434;SDS011;68814;50.872;5.306;2023-05-10T11:19:09;6.68;;;3.90;;
63434;SDS011;68814;50.872;5.306;2023-05-10T11:21:49;6.95;;;4.03;;
63434;SDS011;68814;50.872;5.306;2023-05-10T11:24:30;8.95;;;4.97;;
63434;SDS011;68814;50.872;5.306;2023-05-10T11:26:56;8.50;;;4.50;;
63434;SDS011;68814;50.872;5.306;2023-05-10T11:29:22;8.23;;;3.92;;
63434;SDS011;68814;50.872;5.306;2023-05-10T11:31:48;5.97;;;4.07;;
63434;SDS011;68814;50.872;5.306;2023-05-10T11:34:24;7.10;;;4.43;;
63434;SDS011;68814;50.872;5.306;2023-05-10T11:36:52;5.20;;;3.50;;
63434;SDS011;68814;50.872;5.306;2023-05-10T11:39:19;4.78;;;3.25;;
63434;SDS011;68814;50.872;5.306;2023-05-10T11:41:49;6.03;;;3.33;;
63434;SDS011;68814;50.872;5.306;2023-05-10T11:44:15;5.43;;;3.28;;
63434;SDS011;68814;50.872;5.306;2023-05-10T11:46:41;5.25;;;2.95;;
63434;SDS011;68814;50.872;5.306;2023-05-10T11:49:06;4.63;;;3.40;;
63434;SDS011;68814;50.872;5.306;2023-05-10T11:51:33;4.40;;;2.72;;
63434;SDS011;68814;50.872;5.306;2023-05-10T11:54:01;4.30;;;2.92;;
63434;SDS011;68814;50.872;5.306;2023-05-10T11:56:32;4.28;;;2.90;;
63434;SDS011;68814;50.872;5.306;2023-05-10T11:58:58;5.45;;;3.00;;
63434;SDS011;68814;50.872;5.306;2023-05-10T12:01:25;4.28;;;3.00;;
63434;SDS011;68814;50.872;5.306;2023-05-10T12:03:52;3.88;;;2.63;;
63434;SDS011;68814;50.872;5.306;2023-05-10T12:06:19;6.35;;;2.88;;
63434;SDS011;68814;50.872;5.306;2023-05-10T12:08:47;4.50;;;2.55;;
63434;SDS011;68814;50.872;5.306;2023-05-10T12:11:17;5.72;;;2.90;;
63434;SDS011;68814;50.872;5.306;2023-05-10T12:13:43;7.68;;;3.30;;
63434;SDS011;68814;50.872;5.306;2023-05-10T12:16:22;4.13;;;2.60;;
63434;SDS011;68814;50.872;5.306;2023-05-10T12:18:50;3.63;;;2.92;;
63434;SDS011;68814;50.872;5.306;2023-05-10T12:21:17;2.88;;;2.40;;
63434;SDS011;68814;50.872;5.306;2023-05-10T12:23:45;3.17;;;2.38;;
63434;SDS011;68814;50.872;5.306;2023-05-10T12:26:11;3.47;;;2.15;;
63434;SDS011;68814;50.872;5.306;2023-05-10T12:28:38;3.17;;;1.92;;
63434;SDS011;68814;50.872;5.306;2023-05-10T12:31:07;2.35;;;1.70;;
63434;SDS011;68814;50.872;5.306;2023-05-10T12:33:37;1.80;;;1.40;;
63434;SDS011;68814;50.872;5.306;2023-05-10T12:36:04;3.25;;;1.42;;
63434;SDS011;68814;50.872;5.306;2023-05-10T12:38:38;1.50;;;1.08;;
63434;SDS011;68814;50.872;5.306;2023-05-10T12:41:05;1.52;;;1.30;;
63434;SDS011;68814;50.872;5.306;2023-05-10T12:43:32;2.75;;;1.75;;
63434;SDS011;68814;50.872;5.306;2023-05-10T12:45:58;1.52;;;1.40;;
63434;SDS011;68814;50.872;5.306;2023-05-10T12:48:36;1.63;;;1.45;;
63434;SDS011;68814;50.872;5.306;2023-05-10T12:51:03;1.55;;;1.45;;
63434;SDS011;68814;50.872;5.306;2023-05-10T12:53:29;2.13;;;1.73;;
63434;SDS011;68814;50.872;5.306;2023-05-10T12:55:55;2.35;;;1.48;;
63434;SDS011;68814;50.872;5.306;2023-05-10T12:58:21;2.15;;;1.67;;
63434;SDS011;68814;50.872;5.306;2023-05-10T13:00:47;2.15;;;1.58;;
63434;SDS011;68814;50.872;5.306;2023-05-10T13:03:13;2.78;;;2.10;;
63434;SDS011;68814;50.872;5.306;2023-05-10T13:05:39;3.03;;;2.70;;
63434;SDS011;68814;50.872;5.306;2023-05-10T13:08:05;3.60;;;2.63;;
63434;SDS011;68814;50.872;5.306;2023-05-10T13:10:31;4.68;;;2.85;;
63434;SDS011;68814;50.872;5.306;2023-05-10T13:12:57;5.18;;;2.90;;
63434;SDS011;68814;50.872;5.306;2023-05-10T13:15:23;3.60;;;2.22;;
63434;SDS011;68814;50.872;5.306;2023-05-10T13:17:49;2.17;;;1.92;;
63434;SDS011;68814;50.872;5.306;2023-05-10T13:20:15;3.00;;;2.60;;
63434;SDS011;68814;50.872;5.306;2023-05-10T13:22:42;1.90;;;1.70;;
63434;SDS011;68814;50.872;5.306;2023-05-10T13:25:09;2.08;;;1.88;;
63434;SDS011;68814;50.872;5.306;2023-05-10T13:27:35;1.67;;;1.45;;
63434;SDS011;68814;50.872;5.306;2023-05-10T13:30:02;4.03;;;2.10;;
63434;SDS011;68814;50.872;5.306;2023-05-10T13:32:29;2.22;;;2.03;;
63434;SDS011;68814;50.872;5.306;2023-05-10T13:34:55;2.95;;;1.85;;
63434;SDS011;68814;50.872;5.306;2023-05-10T13:37:21;2.38;;;2.03;;
63434;SDS011;68814;50.872;5.306;2023-05-10T13:39:47;1.60;;;1.50;;
63434;SDS011;68814;50.872;5.306;2023-05-10T13:42:12;1.70;;;1.60;;
63434;SDS011;68814;50.872;5.306;2023-05-10T13:44:38;1.63;;;1.52;;
63434;SDS011;68814;50.872;5.306;2023-05-10T13:47:04;3.83;;;1.85;;
63434;SDS011;68814;50.872;5.306;2023-05-10T13:49:30;2.70;;;2.22;;
63434;SDS011;68814;50.872;5.306;2023-05-10T13:51:56;2.47;;;1.95;;
63434;SDS011;68814;50.872;5.306;2023-05-10T13:54:23;2.17;;;1.80;;
63434;SDS011;68814;50.872;5.306;2023-05-10T13:56:49;4.25;;;1.98;;
63434;SDS011;68814;50.872;5.306;2023-05-10T13:59:14;2.33;;;2.00;;
63434;SDS011;68814;50.872;5.306;2023-05-10T14:01:41;3.30;;;1.98;;
63434;SDS011;68814;50.872;5.306;2023-05-10T14:04:08;1.33;;;1.10;;
63434;SDS011;68814;50.872;5.306;2023-05-10T14:06:36;1.45;;;1.23;;
63434;SDS011;68814;50.872;5.306;2023-05-10T14:09:04;1.63;;;1.25;;
63434;SDS011;68814;50.872;5.306;2023-05-10T14:11:30;2.22;;;1.33;;
63434;SDS011;68814;50.872;5.306;2023-05-10T14:13:59;2.70;;;1.70;;
63434;SDS011;68814;50.872;5.306;2023-05-10T14:16:24;2.42;;;1.23;;
63434;SDS011;68814;50.872;5.306;2023-05-10T14:18:51;1.83;;;1.30;;
63434;SDS011;68814;50.872;5.306;2023-05-10T14:21:16;1.80;;;1.27;;
63434;SDS011;68814;50.872;5.306;2023-05-10T14:23:42;1.80;;;1.48;;
63434;SDS011;68814;50.872;5.306;2023-05-10T14:26:08;2.30;;;1.20;;
63434;SDS011;68814;50.872;5.306;2023-05-10T14:28:33;3.03;;;2.03;;
63434;SDS011;68814;50.872;5.306;2023-05-10T14:30:59;3.47;;;1.90;;
63434;SDS011;68814;50.872;5.306;2023-05-10T14:33:25;2.63;;;1.63;;
63434;SDS011;68814;50.872;5.306;2023-05-10T14:35:50;1.67;;;1.52;;
63434;SDS011;68814;50.872;5.306;2023-05-10T14:38:16;1.85;;;1.42;;
63434;SDS011;68814;50.872;5.306;2023-05-10T14:40:42;2.35;;;1.50;;
63434;SDS011;68814;50.872;5.306;2023-05-10T14:43:08;1.25;;;1.00;;
63434;SDS011;68814;50.872;5.306;2023-05-10T14:45:34;2.53;;;1.40;;
63434;SDS011;68814;50.872;5.306;2023-05-10T14:48:00;3.38;;;1.48;;
63434;SDS011;68814;50.872;5.306;2023-05-10T14:50:26;1.42;;;1.20;;
63434;SDS011;68814;50.872;5.306;2023-05-10T14:52:51;1.50;;;1.30;;
63434;SDS011;68814;50.872;5.306;2023-05-10T14:55:17;2.10;;;1.73;;
63434;SDS011;68814;50.872;5.306;2023-05-10T14:57:43;1.55;;;1.33;;
63434;SDS011;68814;50.872;5.306;2023-05-10T15:00:11;3.25;;;1.20;;
63434;SDS011;68814;50.872;5.306;2023-05-10T15:02:37;1.13;;;0.60;;
63434;SDS011;68814;50.872;5.306;2023-05-10T15:05:03;0.55;;;0.50;;
63434;SDS011;68814;50.872;5.306;2023-05-10T15:07:29;0.77;;;0.45;;
63434;SDS011;68814;50.872;5.306;2023-05-10T15:09:56;0.80;;;0.60;;
63434;SDS011;68814;50.872;5.306;2023-05-10T15:12:21;1.15;;;0.68;;
63434;SDS011;68814;50.872;5.306;2023-05-10T15:14:47;0.85;;;0.40;;